sensor_id;sensor_type;location;lat;lon;timestamp;pressure;altitude;pressure_sealevel;temperature;humidity
50057;BME280;36875;49.468;11.200;2023-04-26T00:02:16;97877.19;;;20.31;40.53
50057;BME280;36875;49.468;11.200;2023-04-26T00:04:44;97879.09;;;20.31;40.29
50057;BME280;36875;49.468;11.200;2023-04-26T00:07:11;97877.50;;;20.30;40.49
50057;BME280;36875;49.468;11.200;2023-04-26T00:09:38;97881.34;;;20.29;40.28
50057;BME280;36875;49.468;11.200;2023-04-26T00:12:06;97879.72;;;20.28;40.47
50057;BME280;36875;49.468;11.200;2023-04-26T00:14:31;97878.09;;;20.27;40.51
50057;BME280;36875;49.468;11.200;2023-04-26T00:16:58;97888.25;;;20.26;40.48
50057;BME280;36875;49.468;11.200;2023-04-26T00:19:23;97882.78;;;20.26;40.32
50057;BME280;36875;49.468;11.200;2023-04-26T00:21:50;97881.97;;;20.26;40.25
50057;BME280;36875;49.468;11.200;2023-04-26T00:24:15;97877.63;;;20.25;40.44
50057;BME280;36875;49.468;11.200;2023-04-26T00:26:41;97881.81;;;20.22;40.33
50057;BME280;36875;49.468;11.200;2023-04-26T00:29:07;97888.06;;;20.22;40.22
50057;BME280;36875;49.468;11.200;2023-04-26T00:31:32;97875.50;;;20.21;40.14
50057;BME280;36875;49.468;11.200;2023-04-26T00:33:58;97885.63;;;20.21;40.38
50057;BME280;36875;49.468;11.200;2023-04-26T00:36:23;97888.38;;;20.21;40.17
50057;BME280;36875;49.468;11.200;2023-04-26T00:38:50;97888.69;;;20.19;39.99
50057;BME280;36875;49.468;11.200;2023-04-26T00:41:16;97887.88;;;20.19;40.09
50057;BME280;36875;49.468;11.200;2023-04-26T00:43:41;97883.34;;;20.14;40.47
50057;BME280;36875;49.468;11.200;2023-04-26T00:46:07;97886.06;;;20.14;40.18
50057;BME280;36875;49.468;11.200;2023-04-26T00:48:33;97894.78;;;20.16;40.13
50057;BME280;36875;49.468;11.200;2023-04-26T00:50:59;97893.16;;;20.15;40.10
50057;BME280;36875;49.468;11.200;2023-04-26T00:53:25;97892.66;;;20.13;40.12
50057;BME280;36875;49.468;11.200;2023-04-26T00:55:52;97902.47;;;20.14;40.44
50057;BME280;36875;49.468;11.200;2023-04-26T00:58:18;97892.66;;;20.13;40.01
50057;BME280;36875;49.468;11.200;2023-04-26T01:00:44;97895.72;;;20.12;40.19
50057;BME280;36875;49.468;11.200;2023-04-26T01:03:10;97891.38;;;20.11;40.45
50057;BME280;36875;49.468;11.200;2023-04-26T01:05:36;97899.25;;;20.12;39.97
50057;BME280;36875;49.468;11.200;2023-04-26T01:08:02;97898.44;;;20.12;40.30
50057;BME280;36875;49.468;11.200;2023-04-26T01:10:29;97901.00;;;20.08;40.15
50057;BME280;36875;49.468;11.200;2023-04-26T01:12:57;97904.22;;;20.10;40.24
50057;BME280;36875;49.468;11.200;2023-04-26T01:15:22;97905.34;;;20.09;40.20
50057;BME280;36875;49.468;11.200;2023-04-26T01:17:48;97905.66;;;20.08;40.09
50057;BME280;36875;49.468;11.200;2023-04-26T01:20:15;97903.72;;;20.08;40.19
50057;BME280;36875;49.468;11.200;2023-04-26T01:22:41;97902.13;;;20.07;40.21
50057;BME280;36875;49.468;11.200;2023-04-26T01:25:10;97905.97;;;20.06;40.16
50057;BME280;36875;49.468;11.200;2023-04-26T01:27:36;97903.53;;;20.05;40.20
50057;BME280;36875;49.468;11.200;2023-04-26T01:30:01;97906.56;;;20.03;40.31
50057;BME280;36875;49.468;11.200;2023-04-26T01:32:27;97915.25;;;20.05;39.98
50057;BME280;36875;49.468;11.200;2023-04-26T01:34:53;97913.66;;;20.04;39.96
50057;BME280;36875;49.468;11.200;2023-04-26T01:37:18;97919.13;;;20.04;40.27
50057;BME280;36875;49.468;11.200;2023-04-26T01:39:45;97914.78;;;20.03;40.25
50057;BME280;36875;49.468;11.200;2023-04-26T01:42:11;97916.69;;;20.02;39.85
50057;BME280;36875;49.468;11.200;2023-04-26T01:44:36;97921.38;;;20.02;39.96
50057;BME280;36875;49.468;11.200;2023-04-26T01:47:02;97913.47;;;20.00;40.01
50057;BME280;36875;49.468;11.200;2023-04-26T01:49:28;97908.31;;;19.99;40.20
50057;BME280;36875;49.468;11.200;2023-04-26T01:51:53;97911.84;;;19.99;39.97
50057;BME280;36875;49.468;11.200;2023-04-26T01:54:19;97913.59;;;19.95;40.07
50057;BME280;36875;49.468;11.200;2023-04-26T01:56:46;97915.72;;;19.98;40.07
50057;BME280;36875;49.468;11.200;2023-04-26T01:59:12;97911.34;;;19.97;40.02
50057;BME280;36875;49.468;11.200;2023-04-26T02:01:40;97921.50;;;19.97;40.07
50057;BME280;36875;49.468;11.200;2023-04-26T02:04:05;97922.28;;;19.97;40.19
50057;BME280;36875;49.468;11.200;2023-04-26T02:06:31;97913.28;;;19.97;39.79
50057;BME280;36875;49.468;11.200;2023-04-26T02:08:57;97917.97;;;19.96;39.85
50057;BME280;36875;49.468;11.200;2023-04-26T02:11:22;97914.72;;;19.94;40.04
50057;BME280;36875;49.468;11.200;2023-04-26T02:13:50;97910.06;;;19.95;39.85
50057;BME280;36875;49.468;11.200;2023-04-26T02:16:15;97920.19;;;19.94;40.13
50057;BME280;36875;49.468;11.200;2023-04-26T02:18:41;97919.38;;;19.94;40.02
50057;BME280;36875;49.468;11.200;2023-04-26T02:21:07;97917.78;;;19.93;39.97
50057;BME280;36875;49.468;11.200;2023-04-26T02:23:32;97922.41;;;19.92;39.88
50057;BME280;36875;49.468;11.200;2023-04-26T02:25:58;97916.44;;;19.90;40.05
50057;BME280;36875;49.468;11.200;2023-04-26T02:28:23;97920.00;;;19.91;40.03
50057;BME280;36875;49.468;11.200;2023-04-26T02:30:50;97914.03;;;19.89;40.06
50057;BME280;36875;49.468;11.200;2023-04-26T02:33:15;97916.75;;;19.89;39.76
50057;BME280;36875;49.468;11.200;2023-04-26T02:35:41;97916.75;;;19.89;39.80
50057;BME280;36875;49.468;11.200;2023-04-26T02:38:06;97910.31;;;19.84;40.13
50057;BME280;36875;49.468;11.200;2023-04-26T02:40:32;97908.06;;;19.87;40.00
50057;BME280;36875;49.468;11.200;2023-04-26T02:42:57;97913.53;;;19.87;39.99
50057;BME280;36875;49.468;11.200;2023-04-26T02:45:23;97915.47;;;19.86;39.94
50057;BME280;36875;49.468;11.200;2023-04-26T02:47:50;97916.59;;;19.85;40.01
50057;BME280;36875;49.468;11.200;2023-04-26T02:50:15;97916.91;;;19.83;40.43
50057;BME280;36875;49.468;11.200;2023-04-26T02:52:41;97917.69;;;19.84;40.01
50057;BME280;36875;49.468;11.200;2023-04-26T02:55:07;97916.06;;;19.83;40.24
50057;BME280;36875;49.468;11.200;2023-04-26T02:57:33;97918.31;;;19.81;40.03
50057;BME280;36875;49.468;11.200;2023-04-26T02:59:58;97915.56;;;19.81;39.78
50057;BME280;36875;49.468;11.200;2023-04-26T03:02:25;97920.25;;;19.80;40.05
50057;BME280;36875;49.468;11.200;2023-04-26T03:04:51;97920.25;;;19.80;39.80
50057;BME280;36875;49.468;11.200;2023-04-26T03:07:18;97920.25;;;19.80;39.61
50057;BME280;36875;49.468;11.200;2023-04-26T03:09:43;97917.00;;;19.78;39.93
50057;BME280;36875;49.468;11.200;2023-04-26T03:12:09;97918.13;;;19.77;40.07
50057;BME280;36875;49.468;11.200;2023-04-26T03:14:34;97923.91;;;19.76;39.86
50057;BME280;36875;49.468;11.200;2023-04-26T03:17:00;97923.09;;;19.75;39.73
50057;BME280;36875;49.468;11.200;2023-04-26T03:19:27;97921.19;;;19.76;40.00
50057;BME280;36875;49.468;11.200;2023-04-26T03:21:54;97926.13;;;19.74;39.86
50057;BME280;36875;49.468;11.200;2023-04-26T03:24:20;97929.69;;;19.74;39.90
50057;BME280;36875;49.468;11.200;2023-04-26T03:26:45;97936.25;;;19.73;39.90
50057;BME280;36875;49.468;11.200;2023-04-26T03:29:11;97931.88;;;19.72;39.76
50057;BME280;36875;49.468;11.200;2023-04-26T03:31:36;97940.06;;;19.72;39.87
50057;BME280;36875;49.468;11.200;2023-04-26T03:34:02;97936.50;;;19.72;39.99
50057;BME280;36875;49.468;11.200;2023-04-26T03:36:28;97930.56;;;19.70;39.80
50057;BME280;36875;49.468;11.200;2023-04-26T03:38:55;97934.09;;;19.70;39.76
50057;BME280;36875;49.468;11.200;2023-04-26T03:41:21;97939.53;;;19.70;39.79
50057;BME280;36875;49.468;11.200;2023-04-26T03:43:47;97937.16;;;19.69;39.54
50057;BME280;36875;49.468;11.200;2023-04-26T03:46:12;97942.63;;;19.69;39.98
50057;BME280;36875;49.468;11.200;2023-04-26T03:48:37;97928.44;;;19.67;39.48
50057;BME280;36875;49.468;11.200;2023-04-26T03:51:04;97945.66;;;19.67;39.47
50057;BME280;36875;49.468;11.200;2023-04-26T03:53:30;97940.19;;;19.67;39.55
50057;BME280;36875;49.468;11.200;2023-04-26T03:55:57;97949.47;;;19.66;39.78
50057;BME280;36875;49.468;11.200;2023-04-26T03:58:23;97946.75;;;19.66;39.69
50057;BME280;36875;49.468;11.200;2023-04-26T04:00:49;97944.31;;;19.64;39.55
50057;BME280;36875;49.468;11.200;2023-04-26T04:03:14;97948.69;;;19.65;39.28
50057;BME280;36875;49.468;11.200;2023-04-26T04:05:40;97957.97;;;19.64;39.68
50057;BME280;36875;49.468;11.200;2023-04-26T04:08:05;97952.84;;;19.63;39.54
50057;BME280;36875;49.468;11.200;2023-04-26T04:10:31;97952.84;;;19.63;39.50
50057;BME280;36875;49.468;11.200;2023-04-26T04:12:58;97956.38;;;19.63;39.24
50057;BME280;36875;49.468;11.200;2023-04-26T04:15:23;97956.69;;;19.62;39.45
50057;BME280;36875;49.468;11.200;2023-04-26T04:17:49;97955.03;;;19.61;39.47
50057;BME280;36875;49.468;11.200;2023-04-26T04:20:14;97963.22;;;19.61;39.38
50057;BME280;36875;49.468;11.200;2023-04-26T04:22:40;97967.09;;;19.60;39.09
50057;BME280;36875;49.468;11.200;2023-04-26T04:25:06;97963.56;;;19.59;39.53
50057;BME280;36875;49.468;11.200;2023-04-26T04:27:32;97960.84;;;19.59;39.12
50057;BME280;36875;49.468;11.200;2023-04-26T04:29:58;97965.47;;;19.59;39.27
50057;BME280;36875;49.468;11.200;2023-04-26T04:32:27;97968.19;;;19.59;39.14
50057;BME280;36875;49.468;11.200;2023-04-26T04:34:53;97969.34;;;19.58;38.96
50057;BME280;36875;49.468;11.200;2023-04-26T04:37:18;97966.59;;;19.58;39.39
50057;BME280;36875;49.468;11.200;2023-04-26T04:39:45;97967.41;;;19.58;39.15
50057;BME280;36875;49.468;11.200;2023-04-26T04:42:11;97972.84;;;19.58;39.44
50057;BME280;36875;49.468;11.200;2023-04-26T04:44:36;97976.69;;;19.57;39.02
50057;BME280;36875;49.468;11.200;2023-04-26T04:47:03;97980.75;;;19.60;39.08
50057;BME280;36875;49.468;11.200;2023-04-26T04:49:29;97981.84;;;19.59;38.65
50057;BME280;36875;49.468;11.200;2023-04-26T04:51:55;97986.00;;;19.56;38.81
50057;BME280;36875;49.468;11.200;2023-04-26T04:54:21;97976.38;;;19.59;38.49
50057;BME280;36875;49.468;11.200;2023-04-26T04:56:47;97985.59;;;19.63;38.34
50057;BME280;36875;49.468;11.200;2023-04-26T04:59:12;97991.06;;;19.63;38.45
50057;BME280;36875;49.468;11.200;2023-04-26T05:01:38;97987.19;;;19.64;38.52
50057;BME280;36875;49.468;11.200;2023-04-26T05:04:05;97986.41;;;19.63;38.35
50057;BME280;36875;49.468;11.200;2023-04-26T05:06:31;97992.16;;;19.62;38.59
50057;BME280;36875;49.468;11.200;2023-04-26T05:08:57;97994.91;;;19.62;38.57
50057;BME280;36875;49.468;11.200;2023-04-26T05:11:23;97988.13;;;19.59;38.42
50057;BME280;36875;49.468;11.200;2023-04-26T05:13:49;97979.94;;;19.59;38.40
50057;BME280;36875;49.468;11.200;2023-04-26T05:16:15;97990.03;;;19.59;38.35
50057;BME280;36875;49.468;11.200;2023-04-26T05:18:41;97986.81;;;19.57;38.59
50057;BME280;36875;49.468;11.200;2023-04-26T05:21:08;97993.69;;;19.54;38.75
50057;BME280;36875;49.468;11.200;2023-04-26T05:23:34;97987.44;;;19.54;38.85
50057;BME280;36875;49.468;11.200;2023-04-26T05:26:00;97998.66;;;19.52;39.12
50057;BME280;36875;49.468;11.200;2023-04-26T05:28:26;98006.84;;;19.52;39.33
50057;BME280;36875;49.468;11.200;2023-04-26T05:30:51;98010.38;;;19.53;39.55
50057;BME280;36875;49.468;11.200;2023-04-26T05:33:17;98012.31;;;19.52;39.37
50057;BME280;36875;49.468;11.200;2023-04-26T05:35:42;98014.22;;;19.52;39.62
50057;BME280;36875;49.468;11.200;2023-04-26T05:38:09;98020.78;;;19.51;39.67
50057;BME280;36875;49.468;11.200;2023-04-26T05:40:35;98015.34;;;19.51;39.90
50057;BME280;36875;49.468;11.200;2023-04-26T05:43:00;98010.97;;;19.50;39.66
50057;BME280;36875;49.468;11.200;2023-04-26T05:45:25;98017.56;;;19.49;39.97
50057;BME280;36875;49.468;11.200;2023-04-26T05:47:51;98020.78;;;19.51;39.87
50057;BME280;36875;49.468;11.200;2023-04-26T05:50:17;98025.44;;;19.50;39.98
50057;BME280;36875;49.468;11.200;2023-04-26T05:52:42;98027.66;;;19.48;40.11
50057;BME280;36875;49.468;11.200;2023-04-26T05:55:09;98032.41;;;19.42;39.79
50057;BME280;36875;49.468;11.200;2023-04-26T05:57:35;98033.53;;;19.41;40.03
50057;BME280;36875;49.468;11.200;2023-04-26T06:00:02;98030.50;;;19.43;40.31
50057;BME280;36875;49.468;11.200;2023-04-26T06:02:29;98035.63;;;19.44;39.91
50057;BME280;36875;49.468;11.200;2023-04-26T06:04:55;98041.63;;;19.47;39.87
50057;BME280;36875;49.468;11.200;2023-04-26T06:07:21;98029.09;;;19.45;40.07
50057;BME280;36875;49.468;11.200;2023-04-26T06:09:46;98029.88;;;19.46;40.25
50057;BME280;36875;49.468;11.200;2023-04-26T06:12:13;98030.72;;;19.47;40.62
50057;BME280;36875;49.468;11.200;2023-04-26T06:14:39;98032.91;;;19.44;40.42
50057;BME280;36875;49.468;11.200;2023-04-26T06:17:04;98032.63;;;19.46;40.29
50057;BME280;36875;49.468;11.200;2023-04-26T06:19:30;98039.19;;;19.45;40.49
50057;BME280;36875;49.468;11.200;2023-04-26T06:21:55;98039.50;;;19.43;40.75
50057;BME280;36875;49.468;11.200;2023-04-26T06:24:21;98033.25;;;19.43;40.29
50057;BME280;36875;49.468;11.200;2023-04-26T06:26:47;98040.28;;;19.44;40.62
50057;BME280;36875;49.468;11.200;2023-04-26T06:29:13;98045.75;;;19.44;40.56
50057;BME280;36875;49.468;11.200;2023-04-26T06:31:39;98039.50;;;19.43;40.74
50057;BME280;36875;49.468;11.200;2023-04-26T06:34:04;98035.97;;;19.43;40.57
50057;BME280;36875;49.468;11.200;2023-04-26T06:36:30;98042.22;;;19.43;40.26
50057;BME280;36875;49.468;11.200;2023-04-26T06:38:57;98043.31;;;19.42;40.57
50057;BME280;36875;49.468;11.200;2023-04-26T06:41:22;98037.88;;;19.42;40.53
50057;BME280;36875;49.468;11.200;2023-04-26T06:43:48;98039.81;;;19.42;40.45
50057;BME280;36875;49.468;11.200;2023-04-26T06:46:15;98042.81;;;19.40;40.58
50057;BME280;36875;49.468;11.200;2023-04-26T06:48:40;98046.06;;;19.42;41.04
50057;BME280;36875;49.468;11.200;2023-04-26T06:51:06;98044.16;;;19.43;40.65
50057;BME280;36875;49.468;11.200;2023-04-26T06:53:32;98040.94;;;19.41;40.79
50057;BME280;36875;49.468;11.200;2023-04-26T06:55:58;98039.81;;;19.42;40.99
50057;BME280;36875;49.468;11.200;2023-04-26T06:58:23;98035.78;;;19.39;41.01
50057;BME280;36875;49.468;11.200;2023-04-26T07:00:49;98048.28;;;19.40;41.07
50057;BME280;36875;49.468;11.200;2023-04-26T07:03:16;98049.91;;;19.41;41.17
50057;BME280;36875;49.468;11.200;2023-04-26T07:05:41;98042.53;;;19.42;41.18
50057;BME280;36875;49.468;11.200;2023-04-26T07:08:07;98043.66;;;19.41;41.03
50057;BME280;36875;49.468;11.200;2023-04-26T07:10:32;98046.06;;;19.42;41.20
50057;BME280;36875;49.468;11.200;2023-04-26T07:12:59;98046.38;;;19.41;41.26
50057;BME280;36875;49.468;11.200;2023-04-26T07:15:24;98042.63;;;19.37;40.90
50057;BME280;36875;49.468;11.200;2023-04-26T07:17:50;98040.81;;;19.32;40.91
50057;BME280;36875;49.468;11.200;2023-04-26T07:20:17;98053.03;;;19.35;40.63
50057;BME280;36875;49.468;11.200;2023-04-26T07:22:45;98042.91;;;19.35;40.38
50057;BME280;36875;49.468;11.200;2023-04-26T07:25:11;98042.91;;;19.35;40.54
50057;BME280;36875;49.468;11.200;2023-04-26T07:27:36;98041.31;;;19.34;40.44
50057;BME280;36875;49.468;11.200;2023-04-26T07:30:02;98041.31;;;19.34;40.56
50057;BME280;36875;49.468;11.200;2023-04-26T07:32:29;98045.66;;;19.35;40.33
50057;BME280;36875;49.468;11.200;2023-04-26T07:34:55;98036.66;;;19.35;40.48
50057;BME280;36875;49.468;11.200;2023-04-26T07:37:22;98038.28;;;19.36;40.51
50057;BME280;36875;49.468;11.200;2023-04-26T07:39:47;98038.59;;;19.34;40.78
50057;BME280;36875;49.468;11.200;2023-04-26T07:42:13;98042.91;;;19.35;40.24
50057;BME280;36875;49.468;11.200;2023-04-26T07:44:39;98036.97;;;19.33;40.57
50057;BME280;36875;49.468;11.200;2023-04-26T07:47:05;98039.41;;;19.35;40.53
50057;BME280;36875;49.468;11.200;2023-04-26T07:49:35;98044.06;;;19.34;40.92
50057;BME280;36875;49.468;11.200;2023-04-26T07:52:01;98029.69;;;19.29;40.74
50057;BME280;36875;49.468;11.200;2023-04-26T07:54:28;98043.25;;;19.34;40.66
50057;BME280;36875;49.468;11.200;2023-04-26T07:56:54;98040.53;;;19.34;41.16
50057;BME280;36875;49.468;11.200;2023-04-26T07:59:19;98046.28;;;19.32;40.88
50057;BME280;36875;49.468;11.200;2023-04-26T08:01:45;98039.69;;;19.33;40.76
50057;BME280;36875;49.468;11.200;2023-04-26T08:04:10;98041.63;;;19.33;40.85
50057;BME280;36875;49.468;11.200;2023-04-26T08:06:36;98046.28;;;19.32;41.00
50057;BME280;36875;49.468;11.200;2023-04-26T08:09:03;98040.81;;;19.32;41.13
50057;BME280;36875;49.468;11.200;2023-04-26T08:11:30;98040.00;;;19.32;40.95
50057;BME280;36875;49.468;11.200;2023-04-26T08:13:56;98040.31;;;19.30;40.79
50057;BME280;36875;49.468;11.200;2023-04-26T08:16:22;98036.75;;;19.30;41.13
50057;BME280;36875;49.468;11.200;2023-04-26T08:18:47;98036.75;;;19.30;40.97
50057;BME280;36875;49.468;11.200;2023-04-26T08:21:14;98038.69;;;19.29;40.99
50057;BME280;36875;49.468;11.200;2023-04-26T08:23:39;98041.91;;;19.31;40.96
50057;BME280;36875;49.468;11.200;2023-04-26T08:26:05;98046.88;;;19.29;41.18
50057;BME280;36875;49.468;11.200;2023-04-26T08:28:32;98049.59;;;19.29;41.15
50057;BME280;36875;49.468;11.200;2023-04-26T08:30:59;98044.16;;;19.29;40.99
50057;BME280;36875;49.468;11.200;2023-04-26T08:33:25;98042.22;;;19.30;41.13
50057;BME280;36875;49.468;11.200;2023-04-26T08:35:51;98044.16;;;19.29;41.38
50057;BME280;36875;49.468;11.200;2023-04-26T08:38:16;98046.06;;;19.29;41.13
50057;BME280;36875;49.468;11.200;2023-04-26T08:40:43;98039.81;;;19.28;41.54
50057;BME280;36875;49.468;11.200;2023-04-26T08:43:13;98046.88;;;19.29;41.00
50057;BME280;36875;49.468;11.200;2023-04-26T08:45:43;98043.16;;;19.25;41.26
50057;BME280;36875;49.468;11.200;2023-04-26T08:48:10;98043.66;;;19.27;41.35
50057;BME280;36875;49.468;11.200;2023-04-26T08:50:42;98046.38;;;19.27;41.10
50057;BME280;36875;49.468;11.200;2023-04-26T08:53:09;98053.47;;;19.28;41.17
50057;BME280;36875;49.468;11.200;2023-04-26T08:55:41;98048.31;;;19.26;41.08
50057;BME280;36875;49.468;11.200;2023-04-26T08:58:07;98048.00;;;19.28;41.42
50057;BME280;36875;49.468;11.200;2023-04-26T09:00:33;98049.09;;;19.27;41.49
50057;BME280;36875;49.468;11.200;2023-04-26T09:03:00;98049.91;;;19.27;41.53
50057;BME280;36875;49.468;11.200;2023-04-26T09:05:26;98047.47;;;19.26;41.48
50057;BME280;36875;49.468;11.200;2023-04-26T09:07:55;98046.66;;;19.25;41.78
50057;BME280;36875;49.468;11.200;2023-04-26T09:10:21;98048.31;;;19.26;41.34
50057;BME280;36875;49.468;11.200;2023-04-26T09:12:50;98036.06;;;19.24;41.63
50057;BME280;36875;49.468;11.200;2023-04-26T09:15:16;98037.69;;;19.25;41.82
50057;BME280;36875;49.468;11.200;2023-04-26T09:17:42;98043.44;;;19.23;41.70
50057;BME280;36875;49.468;11.200;2023-04-26T09:20:21;98046.16;;;19.23;41.66
50057;BME280;36875;49.468;11.200;2023-04-26T09:22:47;98039.41;;;19.21;41.59
50057;BME280;36875;49.468;11.200;2023-04-26T09:25:17;98048.69;;;19.20;41.72
50057;BME280;36875;49.468;11.200;2023-04-26T09:27:44;98030.72;;;19.19;41.49
50057;BME280;36875;49.468;11.200;2023-04-26T09:30:14;98038.56;;;19.20;41.37
50057;BME280;36875;49.468;11.200;2023-04-26T09:32:47;98043.75;;;19.22;40.92
50057;BME280;36875;49.468;11.200;2023-04-26T09:35:25;98038.56;;;19.20;40.74
50057;BME280;36875;49.468;11.200;2023-04-26T09:37:54;98036.69;;;19.21;40.90
50057;BME280;36875;49.468;11.200;2023-04-26T09:40:21;98031.53;;;19.19;40.69
50057;BME280;36875;49.468;11.200;2023-04-26T09:42:55;98029.59;;;19.20;40.74
50057;BME280;36875;49.468;11.200;2023-04-26T09:45:22;98028.50;;;19.21;40.67
50057;BME280;36875;49.468;11.200;2023-04-26T09:47:48;98026.06;;;19.19;40.81
50057;BME280;36875;49.468;11.200;2023-04-26T09:50:26;98032.81;;;19.22;41.17
50057;BME280;36875;49.468;11.200;2023-04-26T09:52:51;98020.31;;;19.21;41.21
50057;BME280;36875;49.468;11.200;2023-04-26T09:55:24;98023.03;;;19.21;40.94
50057;BME280;36875;49.468;11.200;2023-04-26T09:57:51;98025.28;;;19.19;41.14
50057;BME280;36875;49.468;11.200;2023-04-26T10:00:18;98019.19;;;19.22;41.30
50057;BME280;36875;49.468;11.200;2023-04-26T10:02:44;98022.22;;;19.20;41.42
50057;BME280;36875;49.468;11.200;2023-04-26T10:05:10;98017.59;;;19.21;41.66
50057;BME280;36875;49.468;11.200;2023-04-26T10:07:38;98019.19;;;19.22;41.29
50057;BME280;36875;49.468;11.200;2023-04-26T10:10:06;98019.97;;;19.22;41.74
50057;BME280;36875;49.468;11.200;2023-04-26T10:12:33;98012.13;;;19.21;41.46
50057;BME280;36875;49.468;11.200;2023-04-26T10:14:58;98017.59;;;19.21;41.48
50057;BME280;36875;49.468;11.200;2023-04-26T10:17:24;98023.84;;;19.21;41.92
50057;BME280;36875;49.468;11.200;2023-04-26T10:19:56;98015.34;;;19.23;41.72
50057;BME280;36875;49.468;11.200;2023-04-26T10:22:27;98013.22;;;19.20;41.79
50057;BME280;36875;49.468;11.200;2023-04-26T10:24:54;98016.47;;;19.22;42.09
50057;BME280;36875;49.468;11.200;2023-04-26T10:27:48;98015.16;;;19.19;41.99
50057;BME280;36875;49.468;11.200;2023-04-26T10:30:14;98016.75;;;19.20;41.99
50057;BME280;36875;49.468;11.200;2023-04-26T10:36:02;98017.88;;;19.19;42.33
50057;BME280;36875;49.468;11.200;2023-04-26T10:38:28;98013.03;;;19.16;42.26
50057;BME280;36875;49.468;11.200;2023-04-26T10:40:55;98009.69;;;19.19;41.99
50057;BME280;36875;49.468;11.200;2023-04-26T10:43:41;98010.78;;;19.18;42.33
50057;BME280;36875;49.468;11.200;2023-04-26T10:46:37;98008.91;;;19.19;42.13
50057;BME280;36875;49.468;11.200;2023-04-26T10:49:13;98010.28;;;19.16;42.14
50057;BME280;36875;49.468;11.200;2023-04-26T10:51:40;98006.16;;;19.19;42.56
50057;BME280;36875;49.468;11.200;2023-04-26T10:54:05;98008.91;;;19.19;42.23
50057;BME280;36875;49.468;11.200;2023-04-26T10:56:51;98000.72;;;19.19;42.70
50057;BME280;36875;49.468;11.200;2023-04-26T10:59:20;97992.53;;;19.19;42.36
50057;BME280;36875;49.468;11.200;2023-04-26T11:01:46;98003.44;;;19.19;42.99
50057;BME280;36875;49.468;11.200;2023-04-26T11:04:12;97999.59;;;19.20;42.78
50057;BME280;36875;49.468;11.200;2023-04-26T11:06:47;98000.72;;;19.19;42.29
50057;BME280;36875;49.468;11.200;2023-04-26T11:09:33;97983.31;;;19.15;42.32
50057;BME280;36875;49.468;11.200;2023-04-26T11:12:05;97991.50;;;19.15;42.06
50057;BME280;36875;49.468;11.200;2023-04-26T11:14:31;97988.56;;;19.11;42.32
50057;BME280;36875;49.468;11.200;2023-04-26T11:16:57;97990.41;;;19.16;42.42
50057;BME280;36875;49.468;11.200;2023-04-26T11:19:22;97993.94;;;19.16;42.31
50057;BME280;36875;49.468;11.200;2023-04-26T11:21:48;97991.50;;;19.15;42.17
50057;BME280;36875;49.468;11.200;2023-04-26T11:24:14;97991.50;;;19.15;42.15
50057;BME280;36875;49.468;11.200;2023-04-26T11:26:39;97988.25;;;19.13;41.71
50057;BME280;36875;49.468;11.200;2023-04-26T11:29:07;97984.44;;;19.14;41.54
50057;BME280;36875;49.468;11.200;2023-04-26T11:31:34;97979.78;;;19.14;41.68
50057;BME280;36875;49.468;11.200;2023-04-26T11:34:03;97970.50;;;19.15;41.65
50057;BME280;36875;49.468;11.200;2023-04-26T11:36:29;97966.94;;;19.15;41.80
50057;BME280;36875;49.468;11.200;2023-04-26T11:38:55;97978.34;;;19.17;41.54
50057;BME280;36875;49.468;11.200;2023-04-26T11:41:22;97979.47;;;19.16;41.68
50057;BME280;36875;49.468;11.200;2023-04-26T11:43:48;97973.53;;;19.14;42.14
50057;BME280;36875;49.468;11.200;2023-04-26T11:46:15;97978.69;;;19.15;41.92
50057;BME280;36875;49.468;11.200;2023-04-26T11:48:44;97979.47;;;19.16;41.88
50057;BME280;36875;49.468;11.200;2023-04-26T11:51:10;97981.22;;;19.12;42.16
50057;BME280;36875;49.468;11.200;2023-04-26T11:53:36;97985.25;;;19.14;42.38
50057;BME280;36875;49.468;11.200;2023-04-26T11:56:03;97981.41;;;19.15;42.35
50057;BME280;36875;49.468;11.200;2023-04-26T11:58:29;97983.31;;;19.15;42.77
50057;BME280;36875;49.468;11.200;2023-04-26T12:00:56;97983.31;;;19.15;42.60
50057;BME280;36875;49.468;11.200;2023-04-26T12:03:28;97974.53;;;19.18;42.81
50057;BME280;36875;49.468;11.200;2023-04-26T12:05:54;97981.63;;;19.19;43.01
50057;BME280;36875;49.468;11.200;2023-04-26T12:08:23;97972.09;;;19.16;42.94
50057;BME280;36875;49.468;11.200;2023-04-26T12:10:49;97970.81;;;19.14;42.44
50057;BME280;36875;49.468;11.200;2023-04-26T12:13:14;97967.78;;;19.15;42.37
50057;BME280;36875;49.468;11.200;2023-04-26T12:15:40;97972.81;;;19.08;42.76
50057;BME280;36875;49.468;11.200;2023-04-26T12:18:07;97969.78;;;19.10;42.29
50057;BME280;36875;49.468;11.200;2023-04-26T12:20:36;97969.47;;;19.11;42.09
50057;BME280;36875;49.468;11.200;2023-04-26T12:23:03;97962.72;;;19.09;41.79
50057;BME280;36875;49.468;11.200;2023-04-26T12:25:30;97968.97;;;19.09;41.81
50057;BME280;36875;49.468;11.200;2023-04-26T12:27:56;97962.72;;;19.09;41.30
50057;BME280;36875;49.468;11.200;2023-04-26T12:30:22;97961.09;;;19.07;41.44
50057;BME280;36875;49.468;11.200;2023-04-26T12:32:47;97964.66;;;19.08;41.46
50057;BME280;36875;49.468;11.200;2023-04-26T12:35:13;97959.19;;;19.08;41.03
50057;BME280;36875;49.468;11.200;2023-04-26T12:37:40;97957.56;;;19.07;41.21
50057;BME280;36875;49.468;11.200;2023-04-26T12:40:07;97948.69;;;19.01;41.23
50057;BME280;36875;49.468;11.200;2023-04-26T12:42:33;97967.66;;;19.06;41.11
50057;BME280;36875;49.468;11.200;2023-04-26T12:44:59;97948.56;;;19.06;40.93
50057;BME280;36875;49.468;11.200;2023-04-26T12:47:24;97958.69;;;19.06;40.98
50057;BME280;36875;49.468;11.200;2023-04-26T12:49:50;97962.50;;;19.05;40.86
50057;BME280;36875;49.468;11.200;2023-04-26T12:52:16;97961.72;;;19.04;41.02